sensor_id;sensor_type;location;lat;lon;timestamp;temperature;humidity
52209;DHT22;38507;53.132;6.394;2023-05-10T00:02:09;13.00;99.90
52209;DHT22;38507;53.132;6.394;2023-05-10T00:04:34;12.80;99.90
52209;DHT22;38507;53.132;6.394;2023-05-10T00:07:00;12.80;99.90
52209;DHT22;38507;53.132;6.394;2023-05-10T00:09:26;12.80;99.90
52209;DHT22;38507;53.132;6.394;2023-05-10T00:11:52;12.80;99.90
52209;DHT22;38507;53.132;6.394;2023-05-10T00:14:18;12.70;99.90
52209;DHT22;38507;53.132;6.394;2023-05-10T00:16:44;12.80;99.90
52209;DHT22;38507;53.132;6.394;2023-05-10T00:19:10;12.70;99.90
52209;DHT22;38507;53.132;6.394;2023-05-10T00:21:36;12.70;99.90
52209;DHT22;38507;53.132;6.394;2023-05-10T00:24:01;12.90;99.90
52209;DHT22;38507;53.132;6.394;2023-05-10T00:26:27;12.70;99.90
52209;DHT22;38507;53.132;6.394;2023-05-10T00:28:53;12.60;99.90
52209;DHT22;38507;53.132;6.394;2023-05-10T00:31:18;12.60;99.90
52209;DHT22;38507;53.132;6.394;2023-05-10T00:33:44;12.70;99.90
52209;DHT22;38507;53.132;6.394;2023-05-10T00:36:09;12.70;99.90
52209;DHT22;38507;53.132;6.394;2023-05-10T00:38:35;12.50;99.90
52209;DHT22;38507;53.132;6.394;2023-05-10T00:41:01;12.50;99.90
52209;DHT22;38507;53.132;6.394;2023-05-10T00:43:27;12.60;99.90
52209;DHT22;38507;53.132;6.394;2023-05-10T00:45:52;12.50;99.90
52209;DHT22;38507;53.132;6.394;2023-05-10T00:48:18;12.50;99.90
52209;DHT22;38507;53.132;6.394;2023-05-10T00:50:45;12.50;99.90
52209;DHT22;38507;53.132;6.394;2023-05-10T00:53:11;12.50;99.90
52209;DHT22;38507;53.132;6.394;2023-05-10T00:55:37;12.50;99.90
52209;DHT22;38507;53.132;6.394;2023-05-10T00:58:03;12.50;99.90
52209;DHT22;38507;53.132;6.394;2023-05-10T01:00:29;12.70;99.90
52209;DHT22;38507;53.132;6.394;2023-05-10T01:02:55;12.40;99.90
52209;DHT22;38507;53.132;6.394;2023-05-10T01:05:20;12.40;99.90
52209;DHT22;38507;53.132;6.394;2023-05-10T01:07:46;12.40;99.90
52209;DHT22;38507;53.132;6.394;2023-05-10T01:10:12;12.40;99.90
52209;DHT22;38507;53.132;6.394;2023-05-10T01:12:40;12.30;99.90
52209;DHT22;38507;53.132;6.394;2023-05-10T01:15:10;12.40;99.90
52209;DHT22;38507;53.132;6.394;2023-05-10T01:17:38;12.40;99.90
52209;DHT22;38507;53.132;6.394;2023-05-10T01:20:06;12.30;99.90
52209;DHT22;38507;53.132;6.394;2023-05-10T01:28:03;12.30;99.90
52209;DHT22;38507;53.132;6.394;2023-05-10T01:33:46;12.30;99.90
52209;DHT22;38507;53.132;6.394;2023-05-10T01:36:31;12.30;99.90
52209;DHT22;38507;53.132;6.394;2023-05-10T01:39:17;12.30;99.90
52209;DHT22;38507;53.132;6.394;2023-05-10T01:42:03;12.30;99.90
52209;DHT22;38507;53.132;6.394;2023-05-10T01:44:39;12.30;99.90
52209;DHT22;38507;53.132;6.394;2023-05-10T01:47:15;12.30;99.90
52209;DHT22;38507;53.132;6.394;2023-05-10T01:49:54;12.30;99.90
52209;DHT22;38507;53.132;6.394;2023-05-10T01:52:30;12.30;99.90
52209;DHT22;38507;53.132;6.394;2023-05-10T01:55:02;12.30;99.90
52209;DHT22;38507;53.132;6.394;2023-05-10T01:57:33;12.30;99.90
52209;DHT22;38507;53.132;6.394;2023-05-10T02:00:02;12.30;99.90
52209;DHT22;38507;53.132;6.394;2023-05-10T02:02:30;12.30;99.90
52209;DHT22;38507;53.132;6.394;2023-05-10T02:04:59;12.30;99.90
52209;DHT22;38507;53.132;6.394;2023-05-10T02:07:26;12.30;99.90
52209;DHT22;38507;53.132;6.394;2023-05-10T02:09:53;12.30;99.90
52209;DHT22;38507;53.132;6.394;2023-05-10T02:12:20;12.30;99.90
52209;DHT22;38507;53.132;6.394;2023-05-10T02:14:48;12.30;99.90
52209;DHT22;38507;53.132;6.394;2023-05-10T02:17:16;12.30;99.90
52209;DHT22;38507;53.132;6.394;2023-05-10T02:19:43;12.20;99.90
52209;DHT22;38507;53.132;6.394;2023-05-10T02:22:11;12.20;99.90
52209;DHT22;38507;53.132;6.394;2023-05-10T02:24:37;12.40;99.90
52209;DHT22;38507;53.132;6.394;2023-05-10T02:27:04;12.30;99.90
52209;DHT22;38507;53.132;6.394;2023-05-10T02:29:31;12.30;99.90
52209;DHT22;38507;53.132;6.394;2023-05-10T02:31:58;12.30;99.90
52209;DHT22;38507;53.132;6.394;2023-05-10T02:34:26;12.20;99.90
52209;DHT22;38507;53.132;6.394;2023-05-10T02:36:53;12.20;99.90
52209;DHT22;38507;53.132;6.394;2023-05-10T02:39:20;12.20;99.90
52209;DHT22;38507;53.132;6.394;2023-05-10T02:41:47;12.30;99.90
52209;DHT22;38507;53.132;6.394;2023-05-10T02:44:16;12.20;99.90
52209;DHT22;38507;53.132;6.394;2023-05-10T02:46:42;12.20;99.90
52209;DHT22;38507;53.132;6.394;2023-05-10T02:49:09;12.20;99.90
52209;DHT22;38507;53.132;6.394;2023-05-10T02:51:37;12.30;99.90
52209;DHT22;38507;53.132;6.394;2023-05-10T02:54:15;12.40;99.90
52209;DHT22;38507;53.132;6.394;2023-05-10T02:56:47;12.20;99.90
52209;DHT22;38507;53.132;6.394;2023-05-10T02:59:16;12.20;99.90
52209;DHT22;38507;53.132;6.394;2023-05-10T03:01:41;12.50;99.90
52209;DHT22;38507;53.132;6.394;2023-05-10T03:04:07;12.20;99.90
52209;DHT22;38507;53.132;6.394;2023-05-10T03:06:33;12.30;99.90
52209;DHT22;38507;53.132;6.394;2023-05-10T03:08:59;12.20;99.90
52209;DHT22;38507;53.132;6.394;2023-05-10T03:16:56;12.20;99.90
52209;DHT22;38507;53.132;6.394;2023-05-10T03:19:32;12.20;99.90
52209;DHT22;38507;53.132;6.394;2023-05-10T03:22:04;12.20;99.90
52209;DHT22;38507;53.132;6.394;2023-05-10T03:24:33;12.30;99.90
52209;DHT22;38507;53.132;6.394;2023-05-10T03:27:00;12.20;99.90
52209;DHT22;38507;53.132;6.394;2023-05-10T03:29:28;12.20;99.90
52209;DHT22;38507;53.132;6.394;2023-05-10T03:31:55;12.30;99.90
52209;DHT22;38507;53.132;6.394;2023-05-10T03:34:24;12.50;99.90
52209;DHT22;38507;53.132;6.394;2023-05-10T03:36:49;12.20;99.90
52209;DHT22;38507;53.132;6.394;2023-05-10T03:39:15;12.20;99.90
52209;DHT22;38507;53.132;6.394;2023-05-10T03:41:41;12.20;99.90
52209;DHT22;38507;53.132;6.394;2023-05-10T03:44:06;12.20;99.90
52209;DHT22;38507;53.132;6.394;2023-05-10T03:46:32;12.20;99.90
52209;DHT22;38507;53.132;6.394;2023-05-10T03:48:58;12.10;99.90
52209;DHT22;38507;53.132;6.394;2023-05-10T03:51:23;12.20;99.90
52209;DHT22;38507;53.132;6.394;2023-05-10T03:53:53;12.30;99.90
52209;DHT22;38507;53.132;6.394;2023-05-10T03:56:19;12.50;99.90
52209;DHT22;38507;53.132;6.394;2023-05-10T03:58:46;12.10;99.90
52209;DHT22;38507;53.132;6.394;2023-05-10T04:01:12;12.20;99.90
52209;DHT22;38507;53.132;6.394;2023-05-10T04:03:37;12.20;99.90
52209;DHT22;38507;53.132;6.394;2023-05-10T04:06:03;12.20;99.90
52209;DHT22;38507;53.132;6.394;2023-05-10T04:08:29;12.10;99.90
52209;DHT22;38507;53.132;6.394;2023-05-10T04:11:08;12.20;99.90
52209;DHT22;38507;53.132;6.394;2023-05-10T04:13:34;12.10;99.90
52209;DHT22;38507;53.132;6.394;2023-05-10T04:16:00;12.10;99.90
52209;DHT22;38507;53.132;6.394;2023-05-10T04:18:26;12.10;99.90
52209;DHT22;38507;53.132;6.394;2023-05-10T04:20:51;12.40;99.90
52209;DHT22;38507;53.132;6.394;2023-05-10T04:23:17;12.10;99.90
52209;DHT22;38507;53.132;6.394;2023-05-10T04:25:43;12.20;99.90
52209;DHT22;38507;53.132;6.394;2023-05-10T04:28:08;12.10;99.90
52209;DHT22;38507;53.132;6.394;2023-05-10T04:30:34;12.20;99.90
52209;DHT22;38507;53.132;6.394;2023-05-10T04:33:00;12.10;99.90
52209;DHT22;38507;53.132;6.394;2023-05-10T04:35:28;12.20;99.90
52209;DHT22;38507;53.132;6.394;2023-05-10T04:37:54;12.00;99.90
52209;DHT22;38507;53.132;6.394;2023-05-10T04:40:19;12.10;99.90
52209;DHT22;38507;53.132;6.394;2023-05-10T04:42:45;12.00;99.90
52209;DHT22;38507;53.132;6.394;2023-05-10T04:45:11;12.00;99.90
52209;DHT22;38507;53.132;6.394;2023-05-10T04:47:37;12.00;99.90
52209;DHT22;38507;53.132;6.394;2023-05-10T04:50:03;11.90;99.90
52209;DHT22;38507;53.132;6.394;2023-05-10T04:52:29;12.00;99.90
52209;DHT22;38507;53.132;6.394;2023-05-10T04:54:55;11.90;99.90
52209;DHT22;38507;53.132;6.394;2023-05-10T04:57:21;11.90;99.90
52209;DHT22;38507;53.132;6.394;2023-05-10T04:59:47;12.00;99.90
52209;DHT22;38507;53.132;6.394;2023-05-10T05:02:13;11.90;99.90
52209;DHT22;38507;53.132;6.394;2023-05-10T05:04:38;11.80;99.90
52209;DHT22;38507;53.132;6.394;2023-05-10T05:07:04;11.80;99.90
52209;DHT22;38507;53.132;6.394;2023-05-10T05:09:30;11.90;99.90
52209;DHT22;38507;53.132;6.394;2023-05-10T05:11:57;11.90;99.90
52209;DHT22;38507;53.132;6.394;2023-05-10T05:14:23;11.90;99.90
52209;DHT22;38507;53.132;6.394;2023-05-10T05:16:53;12.10;99.90
52209;DHT22;38507;53.132;6.394;2023-05-10T05:19:19;11.90;99.90
52209;DHT22;38507;53.132;6.394;2023-05-10T05:21:44;11.90;99.90
52209;DHT22;38507;53.132;6.394;2023-05-10T05:24:10;11.90;99.90
52209;DHT22;38507;53.132;6.394;2023-05-10T05:26:38;12.00;99.90
52209;DHT22;38507;53.132;6.394;2023-05-10T05:29:04;12.00;99.90
52209;DHT22;38507;53.132;6.394;2023-05-10T05:31:29;11.90;99.90
52209;DHT22;38507;53.132;6.394;2023-05-10T05:33:55;12.10;99.90
52209;DHT22;38507;53.132;6.394;2023-05-10T05:36:21;12.00;99.90
52209;DHT22;38507;53.132;6.394;2023-05-10T05:38:47;11.90;99.90
52209;DHT22;38507;53.132;6.394;2023-05-10T05:41:13;11.90;99.90
52209;DHT22;38507;53.132;6.394;2023-05-10T05:43:38;12.20;99.90
52209;DHT22;38507;53.132;6.394;2023-05-10T05:46:05;12.00;99.90
52209;DHT22;38507;53.132;6.394;2023-05-10T05:48:31;11.90;99.90
52209;DHT22;38507;53.132;6.394;2023-05-10T05:50:57;11.90;99.90
52209;DHT22;38507;53.132;6.394;2023-05-10T05:53:23;12.00;99.90
52209;DHT22;38507;53.132;6.394;2023-05-10T05:55:53;11.90;99.90
52209;DHT22;38507;53.132;6.394;2023-05-10T05:58:19;12.00;99.90
52209;DHT22;38507;53.132;6.394;2023-05-10T06:00:45;12.00;99.90
52209;DHT22;38507;53.132;6.394;2023-05-10T06:03:11;11.90;99.90
52209;DHT22;38507;53.132;6.394;2023-05-10T06:05:37;11.90;99.90
52209;DHT22;38507;53.132;6.394;2023-05-10T06:08:02;11.90;99.90
52209;DHT22;38507;53.132;6.394;2023-05-10T06:10:28;11.80;99.90
52209;DHT22;38507;53.132;6.394;2023-05-10T06:12:54;11.90;99.90
52209;DHT22;38507;53.132;6.394;2023-05-10T06:15:19;11.90;99.90
52209;DHT22;38507;53.132;6.394;2023-05-10T06:17:45;11.80;99.90
52209;DHT22;38507;53.132;6.394;2023-05-10T06:20:12;11.90;99.90
52209;DHT22;38507;53.132;6.394;2023-05-10T06:22:38;11.80;99.90
52209;DHT22;38507;53.132;6.394;2023-05-10T06:25:04;11.90;99.90
52209;DHT22;38507;53.132;6.394;2023-05-10T06:27:30;11.80;99.90
52209;DHT22;38507;53.132;6.394;2023-05-10T06:29:56;11.90;99.90
52209;DHT22;38507;53.132;6.394;2023-05-10T06:32:21;11.90;99.90
52209;DHT22;38507;53.132;6.394;2023-05-10T06:34:47;11.90;99.90
52209;DHT22;38507;53.132;6.394;2023-05-10T06:37:13;11.90;99.90
52209;DHT22;38507;53.132;6.394;2023-05-10T06:39:38;12.00;99.90
52209;DHT22;38507;53.132;6.394;2023-05-10T06:42:04;11.90;99.90
52209;DHT22;38507;53.132;6.394;2023-05-10T06:44:30;12.00;99.90
52209;DHT22;38507;53.132;6.394;2023-05-10T06:46:56;12.00;99.90
52209;DHT22;38507;53.132;6.394;2023-05-10T06:49:21;12.00;99.90
52209;DHT22;38507;53.132;6.394;2023-05-10T06:51:47;12.00;99.90
52209;DHT22;38507;53.132;6.394;2023-05-10T06:54:13;12.00;99.90
52209;DHT22;38507;53.132;6.394;2023-05-10T06:56:39;12.20;99.90
52209;DHT22;38507;53.132;6.394;2023-05-10T06:59:05;12.10;99.90
52209;DHT22;38507;53.132;6.394;2023-05-10T07:01:30;12.00;99.90
52209;DHT22;38507;53.132;6.394;2023-05-10T07:03:56;12.00;99.90
52209;DHT22;38507;53.132;6.394;2023-05-10T07:06:22;12.10;99.90
52209;DHT22;38507;53.132;6.394;2023-05-10T07:08:47;12.00;99.90
52209;DHT22;38507;53.132;6.394;2023-05-10T07:11:13;12.50;99.90
52209;DHT22;38507;53.132;6.394;2023-05-10T07:13:38;12.10;99.90
52209;DHT22;38507;53.132;6.394;2023-05-10T07:16:07;12.10;99.90
52209;DHT22;38507;53.132;6.394;2023-05-10T07:18:33;12.20;99.90
52209;DHT22;38507;53.132;6.394;2023-05-10T07:20:58;12.10;99.90
52209;DHT22;38507;53.132;6.394;2023-05-10T07:23:24;12.20;99.90
52209;DHT22;38507;53.132;6.394;2023-05-10T07:25:51;12.20;99.90
52209;DHT22;38507;53.132;6.394;2023-05-10T07:28:19;12.20;99.90
52209;DHT22;38507;53.132;6.394;2023-05-10T07:30:45;12.30;99.90
52209;DHT22;38507;53.132;6.394;2023-05-10T07:33:13;12.40;99.90
52209;DHT22;38507;53.132;6.394;2023-05-10T07:35:39;12.20;99.90
52209;DHT22;38507;53.132;6.394;2023-05-10T07:38:05;12.30;99.90
52209;DHT22;38507;53.132;6.394;2023-05-10T07:40:31;12.30;99.90
52209;DHT22;38507;53.132;6.394;2023-05-10T07:42:56;12.30;99.90
52209;DHT22;38507;53.132;6.394;2023-05-10T07:45:22;12.40;99.90
52209;DHT22;38507;53.132;6.394;2023-05-10T07:47:48;12.40;99.90
52209;DHT22;38507;53.132;6.394;2023-05-10T07:50:14;12.30;99.90
52209;DHT22;38507;53.132;6.394;2023-05-10T07:52:40;12.40;99.90
52209;DHT22;38507;53.132;6.394;2023-05-10T07:55:06;12.40;99.90
52209;DHT22;38507;53.132;6.394;2023-05-10T07:57:33;12.30;99.90
52209;DHT22;38507;53.132;6.394;2023-05-10T07:59:59;12.80;99.90
52209;DHT22;38507;53.132;6.394;2023-05-10T08:02:25;12.40;99.90
52209;DHT22;38507;53.132;6.394;2023-05-10T08:04:50;12.40;99.90
52209;DHT22;38507;53.132;6.394;2023-05-10T08:07:17;12.50;99.90
52209;DHT22;38507;53.132;6.394;2023-05-10T08:09:42;12.40;99.90
52209;DHT22;38507;53.132;6.394;2023-05-10T08:12:08;12.50;99.90
52209;DHT22;38507;53.132;6.394;2023-05-10T08:14:34;12.50;99.90
52209;DHT22;38507;53.132;6.394;2023-05-10T08:17:02;12.50;99.90
52209;DHT22;38507;53.132;6.394;2023-05-10T08:19:28;12.50;99.90
52209;DHT22;38507;53.132;6.394;2023-05-10T08:21:54;12.60;99.90
52209;DHT22;38507;53.132;6.394;2023-05-10T08:24:21;12.60;99.90
52209;DHT22;38507;53.132;6.394;2023-05-10T08:26:47;12.60;99.90
52209;DHT22;38507;53.132;6.394;2023-05-10T08:29:14;12.60;99.90
52209;DHT22;38507;53.132;6.394;2023-05-10T08:31:39;12.70;99.90
52209;DHT22;38507;53.132;6.394;2023-05-10T08:34:05;12.70;99.90
52209;DHT22;38507;53.132;6.394;2023-05-10T08:36:31;12.70;99.90
52209;DHT22;38507;53.132;6.394;2023-05-10T08:38:57;12.60;99.90
52209;DHT22;38507;53.132;6.394;2023-05-10T08:41:24;12.70;99.90
52209;DHT22;38507;53.132;6.394;2023-05-10T08:43:51;12.80;99.90
52209;DHT22;38507;53.132;6.394;2023-05-10T08:46:18;12.70;99.90
52209;DHT22;38507;53.132;6.394;2023-05-10T08:48:45;12.80;99.90
52209;DHT22;38507;53.132;6.394;2023-05-10T08:51:14;12.80;99.90
52209;DHT22;38507;53.132;6.394;2023-05-10T08:53:40;12.90;99.90
52209;DHT22;38507;53.132;6.394;2023-05-10T08:56:06;13.10;99.90
52209;DHT22;38507;53.132;6.394;2023-05-10T08:58:32;12.90;99.90
52209;DHT22;38507;53.132;6.394;2023-05-10T09:00:59;13.00;99.90
52209;DHT22;38507;53.132;6.394;2023-05-10T09:03:26;13.00;99.90
52209;DHT22;38507;53.132;6.394;2023-05-10T09:05:51;13.00;99.90
52209;DHT22;38507;53.132;6.394;2023-05-10T09:08:18;13.20;99.90
52209;DHT22;38507;53.132;6.394;2023-05-10T09:10:45;13.20;99.90
52209;DHT22;38507;53.132;6.394;2023-05-10T09:13:14;13.20;99.90
52209;DHT22;38507;53.132;6.394;2023-05-10T09:15:43;13.30;99.90
52209;DHT22;38507;53.132;6.394;2023-05-10T09:18:09;13.30;99.90
52209;DHT22;38507;53.132;6.394;2023-05-10T09:20:35;13.30;99.90
52209;DHT22;38507;53.132;6.394;2023-05-10T09:23:00;13.40;99.90
52209;DHT22;38507;53.132;6.394;2023-05-10T09:25:26;13.50;99.90
52209;DHT22;38507;53.132;6.394;2023-05-10T09:27:52;13.60;99.90
52209;DHT22;38507;53.132;6.394;2023-05-10T09:30:27;13.60;99.90
52209;DHT22;38507;53.132;6.394;2023-05-10T09:32:55;13.70;99.90
52209;DHT22;38507;53.132;6.394;2023-05-10T09:35:23;13.60;99.90
52209;DHT22;38507;53.132;6.394;2023-05-10T09:37:51;13.70;99.90
52209;DHT22;38507;53.132;6.394;2023-05-10T09:40:19;13.70;99.90
52209;DHT22;38507;53.132;6.394;2023-05-10T09:45:27;13.80;99.90
52209;DHT22;38507;53.132;6.394;2023-05-10T09:47:54;13.80;99.90
52209;DHT22;38507;53.132;6.394;2023-05-10T09:50:20;13.70;99.90
52209;DHT22;38507;53.132;6.394;2023-05-10T09:52:55;13.80;99.90
52209;DHT22;38507;53.132;6.394;2023-05-10T09:55:25;13.90;99.90
52209;DHT22;38507;53.132;6.394;2023-05-10T09:58:00;13.90;99.90
52209;DHT22;38507;53.132;6.394;2023-05-10T10:00:27;14.00;99.90
52209;DHT22;38507;53.132;6.394;2023-05-10T10:02:58;13.90;99.90
52209;DHT22;38507;53.132;6.394;2023-05-10T10:05:34;13.90;99.90
52209;DHT22;38507;53.132;6.394;2023-05-10T10:08:03;14.00;99.90
52209;DHT22;38507;53.132;6.394;2023-05-10T10:10:31;14.00;99.90
52209;DHT22;38507;53.132;6.394;2023-05-10T10:12:57;14.00;99.90
52209;DHT22;38507;53.132;6.394;2023-05-10T10:15:23;14.00;99.90
52209;DHT22;38507;53.132;6.394;2023-05-10T10:17:50;14.00;99.90
52209;DHT22;38507;53.132;6.394;2023-05-10T10:20:17;14.00;99.90
52209;DHT22;38507;53.132;6.394;2023-05-10T10:22:43;14.20;99.90
52209;DHT22;38507;53.132;6.394;2023-05-10T10:25:10;14.20;99.90
52209;DHT22;38507;53.132;6.394;2023-05-10T10:35:18;14.40;99.90
52209;DHT22;38507;53.132;6.394;2023-05-10T10:37:45;14.50;99.90
52209;DHT22;38507;53.132;6.394;2023-05-10T10:40:28;14.60;99.90
52209;DHT22;38507;53.132;6.394;2023-05-10T10:42:55;14.60;99.90
52209;DHT22;38507;53.132;6.394;2023-05-10T10:45:22;14.60;99.90
52209;DHT22;38507;53.132;6.394;2023-05-10T10:47:48;14.60;99.90
52209;DHT22;38507;53.132;6.394;2023-05-10T10:50:15;14.60;99.90
52209;DHT22;38507;53.132;6.394;2023-05-10T10:52:44;14.50;99.90
52209;DHT22;38507;53.132;6.394;2023-05-10T11:00:27;14.40;99.90
52209;DHT22;38507;53.132;6.394;2023-05-10T11:02:57;14.40;99.90
52209;DHT22;38507;53.132;6.394;2023-05-10T11:08:17;14.40;99.90
52209;DHT22;38507;53.132;6.394;2023-05-10T11:10:51;14.50;99.90
52209;DHT22;38507;53.132;6.394;2023-05-10T11:13:34;14.50;99.90
52209;DHT22;38507;53.132;6.394;2023-05-10T11:16:23;14.50;99.90
52209;DHT22;38507;53.132;6.394;2023-05-10T11:19:13;14.40;99.90
52209;DHT22;38507;53.132;6.394;2023-05-10T11:24:37;14.40;99.90
52209;DHT22;38507;53.132;6.394;2023-05-10T11:27:02;14.40;99.90
52209;DHT22;38507;53.132;6.394;2023-05-10T11:29:28;14.40;99.90
52209;DHT22;38507;53.132;6.394;2023-05-10T11:31:57;14.50;99.90
52209;DHT22;38507;53.132;6.394;2023-05-10T11:34:27;14.50;99.90
52209;DHT22;38507;53.132;6.394;2023-05-10T11:36:55;14.50;99.90
52209;DHT22;38507;53.132;6.394;2023-05-10T11:39:25;14.50;99.90
52209;DHT22;38507;53.132;6.394;2023-05-10T11:41:51;14.50;99.90
52209;DHT22;38507;53.132;6.394;2023-05-10T11:44:16;14.50;99.90
52209;DHT22;38507;53.132;6.394;2023-05-10T11:46:42;14.60;99.90
52209;DHT22;38507;53.132;6.394;2023-05-10T11:49:08;14.60;99.90
52209;DHT22;38507;53.132;6.394;2023-05-10T11:51:35;14.50;99.90
52209;DHT22;38507;53.132;6.394;2023-05-10T11:54:08;14.50;99.90
52209;DHT22;38507;53.132;6.394;2023-05-10T11:56:34;14.70;99.90
52209;DHT22;38507;53.132;6.394;2023-05-10T11:59:01;14.70;99.90
52209;DHT22;38507;53.132;6.394;2023-05-10T12:01:28;14.70;99.90
52209;DHT22;38507;53.132;6.394;2023-05-10T12:03:55;14.80;99.90
52209;DHT22;38507;53.132;6.394;2023-05-10T12:06:27;14.90;99.90
52209;DHT22;38507;53.132;6.394;2023-05-10T12:08:54;14.90;99.90
52209;DHT22;38507;53.132;6.394;2023-05-10T12:11:20;14.80;99.90
52209;DHT22;38507;53.132;6.394;2023-05-10T12:13:49;14.90;99.90
52209;DHT22;38507;53.132;6.394;2023-05-10T12:16:17;14.80;99.90
52209;DHT22;38507;53.132;6.394;2023-05-10T12:18:44;14.90;99.90
52209;DHT22;38507;53.132;6.394;2023-05-10T12:21:13;14.90;99.90
52209;DHT22;38507;53.132;6.394;2023-05-10T12:23:41;14.80;99.90
52209;DHT22;38507;53.132;6.394;2023-05-10T12:26:09;14.70;99.90
52209;DHT22;38507;53.132;6.394;2023-05-10T12:28:38;14.80;99.90
52209;DHT22;38507;53.132;6.394;2023-05-10T12:31:07;14.70;99.90
52209;DHT22;38507;53.132;6.394;2023-05-10T12:33:41;14.80;99.90
52209;DHT22;38507;53.132;6.394;2023-05-10T12:36:13;14.80;99.90
52209;DHT22;38507;53.132;6.394;2023-05-10T12:38:40;14.90;99.90
52209;DHT22;38507;53.132;6.394;2023-05-10T12:41:10;14.90;99.90
52209;DHT22;38507;53.132;6.394;2023-05-10T12:43:36;15.00;99.90
52209;DHT22;38507;53.132;6.394;2023-05-10T12:46:13;15.10;99.90
52209;DHT22;38507;53.132;6.394;2023-05-10T12:48:40;15.00;99.90
52209;DHT22;38507;53.132;6.394;2023-05-10T12:51:07;15.00;99.90
52209;DHT22;38507;53.132;6.394;2023-05-10T12:53:41;15.10;99.90
52209;DHT22;38507;53.132;6.394;2023-05-10T12:56:07;15.10;99.90
52209;DHT22;38507;53.132;6.394;2023-05-10T12:58:33;15.20;99.90
52209;DHT22;38507;53.132;6.394;2023-05-10T13:00:59;15.30;99.90
52209;DHT22;38507;53.132;6.394;2023-05-10T13:03:25;15.30;99.90
52209;DHT22;38507;53.132;6.394;2023-05-10T13:05:51;15.30;99.90
52209;DHT22;38507;53.132;6.394;2023-05-10T13:08:16;15.40;99.90
52209;DHT22;38507;53.132;6.394;2023-05-10T13:10:42;15.50;99.90
52209;DHT22;38507;53.132;6.394;2023-05-10T13:13:08;15.50;99.90
52209;DHT22;38507;53.132;6.394;2023-05-10T13:15:34;15.50;99.90
52209;DHT22;38507;53.132;6.394;2023-05-10T13:18:00;15.50;99.90
52209;DHT22;38507;53.132;6.394;2023-05-10T13:20:25;15.50;99.90
52209;DHT22;38507;53.132;6.394;2023-05-10T13:22:52;15.40;99.90
52209;DHT22;38507;53.132;6.394;2023-05-10T13:25:18;15.50;99.90
52209;DHT22;38507;53.132;6.394;2023-05-10T13:27:43;15.60;99.90
52209;DHT22;38507;53.132;6.394;2023-05-10T13:30:09;15.50;99.90
52209;DHT22;38507;53.132;6.394;2023-05-10T13:32:37;15.60;99.90
52209;DHT22;38507;53.132;6.394;2023-05-10T13:35:03;15.50;99.90
52209;DHT22;38507;53.132;6.394;2023-05-10T13:37:29;15.60;99.90
52209;DHT22;38507;53.132;6.394;2023-05-10T13:39:55;15.60;99.90
52209;DHT22;38507;53.132;6.394;2023-05-10T13:42:22;15.80;99.90
52209;DHT22;38507;53.132;6.394;2023-05-10T13:44:49;15.80;99.90
52209;DHT22;38507;53.132;6.394;2023-05-10T13:47:15;15.80;99.90
52209;DHT22;38507;53.132;6.394;2023-05-10T13:49:41;15.80;99.90
52209;DHT22;38507;53.132;6.394;2023-05-10T13:52:07;16.00;99.90
52209;DHT22;38507;53.132;6.394;2023-05-10T13:54:33;16.10;99.90
52209;DHT22;38507;53.132;6.394;2023-05-10T13:56:59;16.20;99.90
52209;DHT22;38507;53.132;6.394;2023-05-10T13:59:25;16.20;99.90
52209;DHT22;38507;53.132;6.394;2023-05-10T14:01:51;16.30;99.90
52209;DHT22;38507;53.132;6.394;2023-05-10T14:04:16;16.20;99.90
52209;DHT22;38507;53.132;6.394;2023-05-10T14:06:42;16.30;99.90
52209;DHT22;38507;53.132;6.394;2023-05-10T14:09:08;16.30;99.90
52209;DHT22;38507;53.132;6.394;2023-05-10T14:11:34;16.30;99.90
52209;DHT22;38507;53.132;6.394;2023-05-10T14:13:59;16.30;99.90
52209;DHT22;38507;53.132;6.394;2023-05-10T14:16:25;16.30;99.90
52209;DHT22;38507;53.132;6.394;2023-05-10T14:18:51;16.30;99.90
52209;DHT22;38507;53.132;6.394;2023-05-10T14:21:17;16.30;99.90
52209;DHT22;38507;53.132;6.394;2023-05-10T14:23:42;16.20;99.90
52209;DHT22;38507;53.132;6.394;2023-05-10T14:26:08;16.20;99.90
52209;DHT22;38507;53.132;6.394;2023-05-10T14:28:34;16.20;99.90
52209;DHT22;38507;53.132;6.394;2023-05-10T14:30:59;16.10;99.90
52209;DHT22;38507;53.132;6.394;2023-05-10T14:33:25;16.10;99.90
52209;DHT22;38507;53.132;6.394;2023-05-10T14:35:51;16.00;99.90
52209;DHT22;38507;53.132;6.394;2023-05-10T14:38:16;16.00;99.90
52209;DHT22;38507;53.132;6.394;2023-05-10T14:40:42;16.00;99.90
52209;DHT22;38507;53.132;6.394;2023-05-10T14:43:08;16.00;99.90
52209;DHT22;38507;53.132;6.394;2023-05-10T14:45:34;16.00;99.90
52209;DHT22;38507;53.132;6.394;2023-05-10T14:48:00;15.90;99.90
52209;DHT22;38507;53.132;6.394;2023-05-10T14:50:26;16.00;99.90
52209;DHT22;38507;53.132;6.394;2023-05-10T14:52:51;16.00;99.90
52209;DHT22;38507;53.132;6.394;2023-05-10T14:55:17;16.10;99.90
52209;DHT22;38507;53.132;6.394;2023-05-10T14:57:43;16.00;99.90
52209;DHT22;38507;53.132;6.394;2023-05-10T15:00:10;16.00;99.90
52209;DHT22;38507;53.132;6.394;2023-05-10T15:02:35;16.00;99.90
52209;DHT22;38507;53.132;6.394;2023-05-10T15:05:02;16.10;99.90
52209;DHT22;38507;53.132;6.394;2023-05-10T15:07:27;16.10;99.90
52209;DHT22;38507;53.132;6.394;2023-05-10T15:09:53;16.00;99.90
52209;DHT22;38507;53.132;6.394;2023-05-10T15:12:19;16.00;99.90
52209;DHT22;38507;53.132;6.394;2023-05-10T15:14:45;15.90;99.90
52209;DHT22;38507;53.132;6.394;2023-05-10T15:17:11;15.90;99.90
52209;DHT22;38507;53.132;6.394;2023-05-10T15:19:37;15.90;99.90
52209;DHT22;38507;53.132;6.394;2023-05-10T15:22:04;15.80;99.90
52209;DHT22;38507;53.132;6.394;2023-05-10T15:24:30;15.80;99.90
52209;DHT22;38507;53.132;6.394;2023-05-10T15:26:56;15.80;99.90
52209;DHT22;38507;53.132;6.394;2023-05-10T15:29:22;15.90;99.90
52209;DHT22;38507;53.132;6.394;2023-05-10T15:31:50;15.70;99.90
52209;DHT22;38507;53.132;6.394;2023-05-10T15:34:17;15.80;99.90
52209;DHT22;38507;53.132;6.394;2023-05-10T15:36:44;15.70;99.90
52209;DHT22;38507;53.132;6.394;2023-05-10T15:39:10;15.70;99.90
52209;DHT22;38507;53.132;6.394;2023-05-10T15:41:36;15.70;99.90
52209;DHT22;38507;53.132;6.394;2023-05-10T15:44:02;15.70;99.90
52209;DHT22;38507;53.132;6.394;2023-05-10T15:46:28;15.70;99.90
52209;DHT22;38507;53.132;6.394;2023-05-10T15:48:54;15.70;99.90
52209;DHT22;38507;53.132;6.394;2023-05-10T15:51:20;15.70;99.90
52209;DHT22;38507;53.132;6.394;2023-05-10T15:53:46;15.70;99.90
52209;DHT22;38507;53.132;6.394;2023-05-10T15:56:12;15.70;99.90
52209;DHT22;38507;53.132;6.394;2023-05-10T15:58:39;15.70;99.90
52209;DHT22;38507;53.132;6.394;2023-05-10T16:01:04;15.70;99.90
52209;DHT22;38507;53.132;6.394;2023-05-10T16:03:31;15.70;99.90
52209;DHT22;38507;53.132;6.394;2023-05-10T16:05:57;15.60;99.90